« Back
NWS Peachtree City, Ga » Text Product » MCN Terminal Aerodrome Forecast


Printer-friendly Version
Current Version              Previous Versions:   1  2  3  4  5  6  7  8  9  

Terminal Aerodrome Forecast

503
FTUS42 KFFC 031320 AAA
TAFMCN
TAF AMD
KMCN 031320Z 0313/0412 24005KT P6SM BKN015 OVC080
     FM031500 27009KT P6SM BKN025
     FM031800 27010KT 5SM -TSRA BKN030CB
     FM032200 26010KT P6SM VCSH BKN050
     FM040000 28008KT P6SM BKN250
     FM040300 28008KT P6SM SCT250=



USA.gov is the U.S. government's official web portal to all federal, state and local government web resources and services.